Time;durP1;ratioP1;P1;durP2;ratioP2;P2;SDS_P1;SDS_P2;PMS_P1;PMS_P2;Temp;Humidity;BMP_temperature;BMP_pressure;BME280_temperature;BME280_humidity;BME280_pressure;Samples;Min_cycle;Max_cycle;Signal;HPM_P1;HPM_P2
2022/01/19 00:00:39;;;;;;;33.60;13.43;;;;;;;2.66;94.28;103283.78;5057009;28;20486;-43
2022/01/19 00:03:04;;;;;;;38.08;14.52;;;;;;;2.73;94.80;103281.75;5056420;28;20020;-43
2022/01/19 00:05:30;;;;;;;38.00;14.32;;;;;;;2.77;94.18;103267.13;5056350;28;20055;-44
2022/01/19 00:07:55;;;;;;;38.75;14.63;;;;;;;2.77;94.56;103260.28;5056652;28;20432;-44
2022/01/19 00:10:27;;;;;;;37.70;14.68;;;;;;;2.82;94.88;103265.16;5057117;28;20108;-43
2022/01/19 00:12:57;;;;;;;34.58;13.57;;;;;;;2.82;94.07;103245.56;5056918;28;20104;-44
2022/01/19 00:15:24;;;;;;;31.90;13.35;;;;;;;2.78;93.45;103253.44;5056113;28;20025;-44
2022/01/19 00:17:54;;;;;;;33.40;14.15;;;;;;;2.70;93.54;103246.16;5055264;28;20053;-43
2022/01/19 00:20:20;;;;;;;32.60;13.32;;;;;;;2.61;93.49;103247.44;5037430;28;20025;-43
2022/01/19 00:22:45;;;;;;;32.45;12.93;;;;;;;2.66;93.82;103250.59;5054840;28;20036;-44
2022/01/19 00:25:10;;;;;;;30.92;12.63;;;;;;;2.65;93.34;103250.69;5055037;28;20500;-43
2022/01/19 00:27:36;;;;;;;30.42;12.88;;;;;;;2.44;92.92;103247.41;5055121;28;20112;-44
2022/01/19 00:30:03;;;;;;;30.52;12.48;;;;;;;2.48;93.57;103236.19;5036131;28;20078;-44
2022/01/19 00:32:29;;;;;;;30.02;12.70;;;;;;;2.53;93.57;103216.34;5055228;28;20486;-44
2022/01/19 00:34:55;;;;;;;37.30;14.25;;;;;;;2.59;93.77;103200.75;5056186;28;20107;-44
2022/01/19 00:37:20;;;;;;;32.47;13.70;;;;;;;2.49;94.12;103190.13;5056258;28;20102;-44
2022/01/19 00:39:45;;;;;;;31.48;12.50;;;;;;;2.34;93.25;103183.25;5056185;28;20178;-43
2022/01/19 00:42:11;;;;;;;28.10;12.50;;;;;;;2.21;93.25;103172.78;5056339;28;20079;-43
2022/01/19 00:44:38;;;;;;;33.25;13.20;;;;;;;2.28;94.02;103162.31;5056181;28;20073;-43
2022/01/19 00:47:04;;;;;;;32.75;13.93;;;;;;;2.38;94.38;103145.63;5056370;28;20025;-45
2022/01/19 00:49:29;;;;;;;37.42;14.65;;;;;;;2.52;94.39;103147.50;5056634;28;20035;-44
2022/01/19 00:51:54;;;;;;;37.42;14.88;;;;;;;2.66;94.44;103161.22;5056048;28;20033;-44
2022/01/19 00:54:19;;;;;;;30.85;13.50;;;;;;;2.62;93.54;103156.38;5037327;28;20021;-44
2022/01/19 00:56:45;;;;;;;33.55;12.55;;;;;;;2.37;93.58;103146.53;5054113;28;20020;-43
2022/01/19 00:59:10;;;;;;;40.30;12.98;;;;;;;2.28;93.89;103140.16;5054926;28;20075;-43
2022/01/19 01:01:35;;;;;;;30.92;12.15;;;;;;;2.09;94.58;103142.75;5054536;28;20029;-45
2022/01/19 01:04:01;;;;;;;30.55;11.93;;;;;;;2.13;94.32;103148.53;5054551;28;20432;-43
2022/01/19 01:06:26;;;;;;;33.95;12.88;;;;;;;2.25;94.31;103155.63;5054574;28;20051;-44
2022/01/19 01:08:51;;;;;;;30.45;12.77;;;;;;;2.29;93.57;103139.25;5054891;28;20100;-43
2022/01/19 01:11:17;;;;;;;33.28;12.35;;;;;;;2.18;92.72;103126.19;5054738;28;20024;-45
2022/01/19 01:16:40;;;;;;;38.70;13.60;;;;;;;1.94;94.66;103121.38;5054427;28;20033;-44
2022/01/19 01:19:08;;;;;;;30.25;11.95;;;;;;;1.97;94.27;103128.88;5054570;28;20033;-46
2022/01/19 01:21:33;;;;;;;30.17;12.55;;;;;;;1.91;93.72;103120.69;5053763;28;20051;-44
2022/01/19 01:24:00;;;;;;;29.88;12.13;;;;;;;1.93;94.02;103109.53;5055364;28;20086;-43
2022/01/19 01:26:25;;;;;;;35.40;12.68;;;;;;;1.93;93.68;103101.06;5056047;28;20115;-44
2022/01/19 01:28:51;;;;;;;28.45;12.02;;;;;;;1.82;93.30;103106.66;5037472;28;20108;-43
2022/01/19 01:31:16;;;;;;;29.75;11.68;;;;;;;1.77;93.64;103106.88;5055268;28;20021;-43
2022/01/19 01:33:42;;;;;;;27.70;11.75;;;;;;;1.69;94.03;103103.03;5056021;28;20051;-44
2022/01/19 01:36:08;;;;;;;26.25;11.20;;;;;;;1.73;93.37;103086.72;5055178;28;20108;-44
2022/01/19 01:38:37;;;;;;;23.50;10.40;;;;;;;1.71;93.67;103075.75;5055149;28;20112;-43
2022/01/19 01:41:03;;;;;;;25.38;10.32;;;;;;;1.70;93.33;103063.91;5055307;28;20063;-44
2022/01/19 01:43:28;;;;;;;22.63;10.20;;;;;;;1.61;93.37;103051.56;5055103;28;20029;-43
2022/01/19 01:46:01;;;;;;;24.70;10.45;;;;;;;1.58;93.22;103033.00;5055494;28;20029;-45
2022/01/19 01:48:26;;;;;;;24.60;10.68;;;;;;;1.55;93.19;103024.66;5054919;28;20029;-45
2022/01/19 01:53:36;;;;;;;34.55;12.68;;;;;;;1.84;93.31;103017.34;5054882;28;20040;-43
2022/01/19 01:56:06;;;;;;;37.97;12.90;;;;;;;1.89;94.32;103028.13;5054647;28;20068;-44
2022/01/19 01:58:36;;;;;;;29.88;11.80;;;;;;;1.88;93.61;103029.88;5054668;28;20047;-45
2022/01/19 02:01:03;;;;;;;30.30;11.38;;;;;;;1.67;93.38;103019.00;5054508;28;20036;-43
2022/01/19 02:03:36;;;;;;;21.00;10.10;;;;;;;1.58;93.64;103027.06;5036892;28;20067;-43
2022/01/19 02:08:54;;;;;;;31.33;10.75;;;;;;;1.44;93.35;103042.16;5053860;28;20098;-44
2022/01/19 02:23:09;;;;;;;26.08;10.45;;;;;;;1.52;94.03;102995.03;5054478;28;20391;-43
2022/01/19 02:25:42;;;;;;;26.85;10.38;;;;;;;1.57;93.61;102997.38;5054539;28;20025;-43
2022/01/19 02:41:41;;;;;;;23.58;11.05;;;;;;;1.59;92.89;102949.72;5039059;28;20154;-42
2022/01/19 02:44:10;;;;;;;24.98;10.73;;;;;;;1.58;92.97;102950.59;5053861;28;20115;-42
2022/01/19 02:49:16;;;;;;;26.13;10.48;;;;;;;1.62;92.70;102936.00;5054076;28;20032;-43
2022/01/19 02:51:47;;;;;;;28.95;11.48;;;;;;;1.64;93.33;102914.66;5054074;28;20017;-43
2022/01/19 02:54:14;;;;;;;24.60;10.65;;;;;;;1.63;92.91;102918.06;5054275;28;20029;-43
2022/01/19 02:56:42;;;;;;;27.95;11.20;;;;;;;1.65;93.13;102918.00;5053703;28;20028;-43
2022/01/19 02:59:19;;;;;;;28.75;11.63;;;;;;;1.65;92.84;102912.91;5054339;28;20033;-45
2022/01/19 03:09:42;;;;;;;28.25;12.23;;;;;;;1.63;93.28;102872.19;5054124;28;20057;-43
2022/01/19 03:12:08;;;;;;;31.77;13.20;;;;;;;1.86;93.82;102875.31;5053693;28;20025;-43
2022/01/19 03:14:34;;;;;;;32.50;12.77;;;;;;;1.86;92.97;102870.22;5053405;28;20025;-43
2022/01/19 03:16:59;;;;;;;31.73;12.73;;;;;;;1.87;92.59;102864.19;5053435;28;20032;-44
2022/01/19 03:19:26;;;;;;;29.52;12.60;;;;;;;1.83;93.33;102870.38;5035146;28;20036;-43
2022/01/19 03:21:52;;;;;;;25.90;11.80;;;;;;;1.69;92.66;102864.22;5053805;28;20384;-43
2022/01/19 03:24:17;;;;;;;28.83;11.88;;;;;;;1.49;93.36;102872.88;5053241;28;20021;-43
2022/01/19 03:26:42;;;;;;;25.83;11.02;;;;;;;1.56;93.02;102861.50;5053186;28;20025;-44
2022/01/19 03:29:08;;;;;;;30.52;11.60;;;;;;;1.48;93.06;102862.78;5053242;28;20025;-43
2022/01/19 03:31:33;;;;;;;28.58;12.05;;;;;;;1.46;93.27;102844.19;5053233;28;20104;-43
2022/01/19 03:33:59;;;;;;;31.15;12.73;;;;;;;1.55;93.17;102842.03;5053253;28;20028;-44
2022/01/19 03:36:24;;;;;;;39.35;13.00;;;;;;;1.53;93.42;102825.97;5053395;28;20083;-44
2022/01/19 03:38:50;;;;;;;30.75;12.85;;;;;;;1.58;93.51;102824.03;5053677;28;20017;-43
2022/01/19 03:41:15;;;;;;;33.75;13.65;;;;;;;1.52;93.81;102819.22;5053571;28;20367;-44
2022/01/19 03:43:41;;;;;;;32.28;13.80;;;;;;;1.68;93.90;102823.53;5053677;28;20059;-43
2022/01/19 03:46:13;;;;;;;40.55;14.38;;;;;;;1.72;93.97;102830.94;5053093;28;20444;-43
2022/01/19 03:48:45;;;;;;;39.70;14.82;;;;;;;1.75;93.69;102837.59;5035285;28;20116;-43
2022/01/19 03:51:11;;;;;;;38.17;13.75;;;;;;;1.67;93.80;102829.53;5053793;28;20082;-44
2022/01/19 03:53:36;;;;;;;36.75;13.70;;;;;;;1.51;93.85;102830.31;5053021;28;20116;-42
2022/01/19 03:56:02;;;;;;;36.97;13.93;;;;;;;1.60;93.73;102826.47;5053250;28;20025;-43
2022/01/19 03:58:27;;;;;;;35.75;13.23;;;;;;;1.63;93.74;102822.94;5054062;28;20487;-43
2022/01/19 04:00:56;;;;;;;41.25;14.27;;;;;;;1.62;93.70;102813.66;5053200;28;20475;-43
2022/01/19 04:03:35;;;;;;;39.42;14.13;;;;;;;1.55;93.70;102810.59;5053049;28;20048;-43
2022/01/19 04:06:14;;;;;;;33.65;13.65;;;;;;;1.50;93.61;102807.47;5031637;28;20095;-43
2022/01/19 04:08:39;;;;;;;31.52;13.60;;;;;;;1.44;93.53;102817.94;5033361;28;20026;-43
2022/01/19 04:11:04;;;;;;;31.52;12.82;;;;;;;1.58;93.80;102825.72;5033068;28;20018;-43
2022/01/19 04:13:44;;;;;;;33.33;13.77;;;;;;;1.64;93.38;102829.69;5033285;28;20029;-43
2022/01/19 04:16:11;;;;;;;41.05;14.85;;;;;;;1.75;94.14;102827.41;5033327;28;20498;-43
2022/01/19 04:18:36;;;;;;;39.20;14.02;;;;;;;1.97;94.08;102822.03;5032914;28;20022;-43
2022/01/19 04:21:02;;;;;;;38.58;14.60;;;;;;;2.03;93.62;102827.63;5032895;28;20036;-43
2022/01/19 04:23:28;;;;;;;38.50;14.77;;;;;;;2.06;93.43;102824.09;5033457;28;20025;-43
2022/01/19 04:25:53;;;;;;;39.58;15.05;;;;;;;2.13;93.52;102822.03;5032889;28;20030;-43
2022/01/19 04:28:19;;;;;;;35.83;14.55;;;;;;;2.17;93.26;102814.13;5033423;28;20030;-43
2022/01/19 04:30:45;;;;;;;41.97;15.70;;;;;;;2.14;92.82;102816.03;5033944;28;20029;-43
2022/01/19 04:33:18;;;;;;;39.42;15.05;;;;;;;2.25;93.48;102817.13;5036729;28;20028;-44
2022/01/19 04:36:05;;;;;;;35.13;14.15;;;;;;;2.30;93.50;102816.03;5035251;28;20515;-43
2022/01/19 05:03:18;;;;;;;39.58;14.70;;;;;;;2.72;93.28;102780.47;5036251;28;20037;-43
2022/01/19 05:05:54;;;;;;;38.40;15.95;;;;;;;2.71;92.49;102778.84;5048957;28;20055;-44
2022/01/19 05:13:38;;;;;;;37.22;14.65;;;;;;;2.90;93.30;102765.03;5056482;28;20044;-44
2022/01/19 05:16:04;;;;;;;34.85;15.38;;;;;;;2.88;93.59;102769.41;5055812;28;20025;-42
2022/01/19 05:18:30;;;;;;;39.45;15.63;;;;;;;2.89;93.69;102765.94;5055510;28;20017;-43
2022/01/19 05:20:55;;;;;;;41.78;15.88;;;;;;;2.94;93.65;102753.75;5055508;28;20031;-43
2022/01/19 05:23:21;;;;;;;37.35;15.93;;;;;;;2.97;93.45;102751.00;5055686;28;20106;-43
2022/01/19 05:25:46;;;;;;;45.75;16.63;;;;;;;2.97;93.43;102739.97;5055888;28;20029;-43
2022/01/19 05:28:12;;;;;;;42.42;17.50;;;;;;;3.07;93.89;102741.88;5055362;28;20021;-42
2022/01/19 05:30:38;;;;;;;48.20;17.55;;;;;;;3.15;93.90;102731.22;5055306;28;20028;-43
2022/01/19 05:33:03;;;;;;;43.10;17.60;;;;;;;3.17;93.79;102727.66;5055512;28;20467;-42
2022/01/19 05:35:30;;;;;;;54.97;19.45;;;;;;;3.23;93.76;102729.03;5055208;28;20024;-43
2022/01/19 05:37:55;;;;;;;41.60;17.92;;;;;;;3.32;93.74;102720.81;5055395;28;20107;-42
2022/01/19 05:40:21;;;;;;;44.00;17.63;;;;;;;3.29;94.15;102721.00;5055173;28;20068;-43
2022/01/19 05:42:48;;;;;;;40.05;17.67;;;;;;;3.30;94.09;102717.53;5036868;28;20079;-45
2022/01/19 05:45:14;;;;;;;43.85;18.20;;;;;;;3.29;93.91;102713.34;5055268;28;20029;-45
2022/01/19 05:47:40;;;;;;;47.78;19.10;;;;;;;3.36;93.93;102699.25;5054929;28;20475;-42
2022/01/19 05:50:06;;;;;;;47.92;18.55;;;;;;;3.28;94.43;102692.97;5054883;28;20035;-43
2022/01/19 05:52:32;;;;;;;48.65;19.90;;;;;;;3.27;94.80;102692.16;5036969;28;20115;-46
2022/01/19 05:54:57;;;;;;;50.53;19.40;;;;;;;3.35;94.58;102692.53;5055091;28;20056;-42
2022/01/19 05:57:22;;;;;;;51.50;18.95;;;;;;;3.34;94.05;102690.06;5055230;28;20040;-42
2022/01/19 05:59:48;;;;;;;48.95;19.95;;;;;;;3.33;94.36;102698.63;5054889;28;20016;-44
2022/01/19 06:02:14;;;;;;;49.35;19.85;;;;;;;3.40;95.05;102689.69;5036820;28;20464;-43
2022/01/19 06:04:39;;;;;;;57.60;20.42;;;;;;;3.51;94.54;102676.25;5054848;28;20495;-43
2022/01/19 06:07:04;;;;;;;52.10;21.25;;;;;;;3.52;93.98;102667.69;5054567;28;20033;-42
2022/01/19 06:09:35;;;;;;;57.45;20.42;;;;;;;3.67;93.84;102658.22;5054568;28;20029;-41
2022/01/19 06:12:06;;;;;;;61.92;21.35;;;;;;;3.69;93.69;102653.84;5054772;28;20021;-43
2022/01/19 06:14:33;;;;;;;62.53;21.13;;;;;;;3.64;93.99;102656.69;5054464;28;20020;-50
2022/01/19 06:17:00;;;;;;;54.53;20.65;;;;;;;3.58;94.01;102655.31;5054713;28;20025;-42
2022/01/19 06:19:25;;;;;;;61.50;22.45;;;;;;;3.55;94.62;102644.47;5036439;28;20021;-43
2022/01/19 06:21:51;;;;;;;55.75;22.33;;;;;;;3.59;94.57;102640.81;5054712;28;20029;-42
2022/01/19 06:24:16;;;;;;;56.08;21.00;;;;;;;3.74;93.81;102633.91;5054494;28;20029;-44
2022/01/19 06:26:41;;;;;;;58.22;22.15;;;;;;;3.73;93.82;102622.84;5054242;28;20020;-48
2022/01/19 06:29:07;;;;;;;65.82;22.38;;;;;;;3.71;93.70;102622.16;5054504;28;20027;-43
2022/01/19 06:31:32;;;;;;;54.30;22.33;;;;;;;3.71;93.56;102613.63;5054346;28;20029;-44
2022/01/19 06:33:57;;;;;;;57.75;21.67;;;;;;;3.64;93.48;102603.00;5054359;28;20020;-42
2022/01/19 06:36:23;;;;;;;59.72;21.92;;;;;;;3.43;94.46;102601.78;5036188;28;20020;-43
2022/01/19 06:38:48;;;;;;;53.35;20.85;;;;;;;3.50;94.74;102596.19;5036171;28;20060;-42
2022/01/19 06:41:14;;;;;;;62.90;21.88;;;;;;;3.37;94.88;102593.59;5053864;28;20487;-43
2022/01/19 06:43:39;;;;;;;60.72;21.75;;;;;;;3.24;95.34;102596.97;5054208;28;20364;-44
2022/01/19 06:46:05;;;;;;;60.25;22.27;;;;;;;3.29;95.17;102602.63;5035981;28;20024;-44
2022/01/19 06:48:30;;;;;;;60.58;22.27;;;;;;;3.24;96.00;102602.09;5053837;28;20021;-43
2022/01/19 06:50:56;;;;;;;61.97;22.25;;;;;;;3.37;95.08;102597.88;5054040;28;20025;-43
2022/01/19 06:53:21;;;;;;;62.38;22.50;;;;;;;3.43;95.06;102594.94;5035361;28;20025;-42
2022/01/19 06:55:47;;;;;;;56.28;21.67;;;;;;;3.33;95.01;102584.44;5036300;28;20036;-44
2022/01/19 06:58:12;;;;;;;65.70;23.92;;;;;;;3.30;95.35;102583.81;5053697;28;20024;-44
2022/01/19 07:00:38;;;;;;;64.50;23.52;;;;;;;3.37;95.07;102568.03;5036140;28;20029;-43
2022/01/19 07:03:04;;;;;;;60.88;22.13;;;;;;;3.37;95.47;102572.31;5053480;28;20021;-43
2022/01/19 07:05:29;;;;;;;72.78;23.77;;;;;;;3.35;94.87;102566.47;5053984;28;20045;-43
2022/01/19 07:07:57;;;;;;;73.55;24.25;;;;;;;3.47;95.39;102568.25;5035670;28;20032;-44
2022/01/19 07:10:23;;;;;;;63.95;25.08;;;;;;;3.63;95.65;102557.09;5053548;28;20104;-43
2022/01/19 07:12:49;;;;;;;67.65;23.95;;;;;;;3.70;94.88;102563.44;5053630;28;20017;-42
2022/01/19 07:15:14;;;;;;;66.50;23.75;;;;;;;3.66;95.68;102565.38;5053417;28;20395;-42
2022/01/19 07:17:40;;;;;;;59.63;23.65;;;;;;;3.55;95.85;102563.47;5053606;28;20024;-43
2022/01/19 07:20:06;;;;;;;73.65;25.85;;;;;;;3.63;95.94;102567.31;5053609;28;20025;-43
2022/01/19 07:22:31;;;;;;;62.58;24.50;;;;;;;3.68;95.33;102575.47;5053596;28;20383;-44
2022/01/19 07:24:59;;;;;;;63.35;24.20;;;;;;;3.70;95.04;102558.31;5053310;28;20098;-43
2022/01/19 07:27:25;;;;;;;69.93;25.63;;;;;;;3.66;95.03;102567.94;5034574;28;20035;-43
2022/01/19 07:29:50;;;;;;;67.13;24.25;;;;;;;3.64;95.53;102554.41;5053017;28;20514;-44
2022/01/19 07:32:16;;;;;;;69.47;24.92;;;;;;;3.67;95.00;102564.44;5033831;28;20029;-45
2022/01/19 07:34:41;;;;;;;64.95;25.33;;;;;;;3.72;95.90;102549.63;5053516;28;20017;-44
2022/01/19 07:37:07;;;;;;;67.25;25.45;;;;;;;3.64;95.46;102549.28;5035361;28;20032;-43
2022/01/19 07:39:32;;;;;;;62.60;25.42;;;;;;;3.52;95.94;102550.91;5053215;28;20519;-44
2022/01/19 07:41:57;;;;;;;71.72;24.65;;;;;;;3.60;96.88;102558.91;5052567;28;20052;-44
2022/01/19 07:44:23;;;;;;;67.15;24.52;;;;;;;3.51;96.36;102561.22;5053363;28;20387;-41
2022/01/19 07:46:48;;;;;;;66.55;25.52;;;;;;;3.60;96.63;102548.69;5053077;28;20032;-44
2022/01/19 07:49:14;;;;;;;69.95;24.60;;;;;;;3.59;95.61;102564.09;5053396;28;20036;-45
2022/01/19 07:51:40;;;;;;;63.22;25.60;;;;;;;3.52;96.33;102563.69;5052672;28;20041;-44
2022/01/19 07:54:06;;;;;;;68.47;25.38;;;;;;;3.64;96.21;102564.63;5052432;28;20033;-44
2022/01/19 07:56:31;;;;;;;60.22;23.73;;;;;;;3.74;95.44;102554.63;5053072;28;20025;-44
2022/01/19 07:58:56;;;;;;;62.47;25.60;;;;;;;3.77;95.55;102541.63;5052897;28;20035;-44
2022/01/19 08:01:22;;;;;;;68.72;24.83;;;;;;;3.81;94.68;102546.47;5053392;28;20020;-44
2022/01/19 08:03:47;;;;;;;62.97;24.90;;;;;;;3.73;95.43;102535.09;5053087;28;20102;-42
2022/01/19 08:06:13;;;;;;;71.18;25.75;;;;;;;3.82;94.97;102530.19;5054859;28;20053;-43
2022/01/19 08:08:38;;;;;;;65.53;24.60;;;;;;;3.84;95.31;102530.94;5057118;28;20024;-44
2022/01/19 08:11:04;;;;;;;62.95;24.17;;;;;;;3.68;95.93;102521.78;5056738;28;20091;-43
2022/01/19 08:13:29;;;;;;;64.22;24.77;;;;;;;3.73;96.02;102515.47;5056561;28;20021;-43
2022/01/19 08:15:55;;;;;;;62.33;25.88;;;;;;;3.79;96.06;102506.56;5056485;28;20017;-43
2022/01/19 08:18:20;;;;;;;66.97;25.48;;;;;;;3.82;95.45;102509.75;5055835;28;20052;-44
2022/01/19 08:20:45;;;;;;;61.92;24.90;;;;;;;3.94;94.68;102509.84;5055363;28;20383;-43
2022/01/19 08:23:11;;;;;;;62.92;25.45;;;;;;;3.92;95.29;102496.38;5055475;28;20060;-42
2022/01/19 08:25:37;;;;;;;71.45;25.95;;;;;;;3.85;95.16;102493.38;5055716;28;20021;-43
2022/01/19 08:28:03;;;;;;;66.22;25.02;;;;;;;4.01;94.41;102488.09;5055312;28;20025;-42
2022/01/19 08:30:28;;;;;;;66.03;25.10;;;;;;;3.90;95.02;102485.41;5055560;28;20467;-42
2022/01/19 08:32:54;;;;;;;72.68;27.15;;;;;;;3.91;94.94;102474.25;5038296;28;20028;-43
2022/01/19 08:35:19;;;;;;;64.38;25.58;;;;;;;3.81;95.35;102484.28;5056826;28;20029;-43
2022/01/19 08:37:45;;;;;;;63.17;27.13;;;;;;;3.92;95.27;102478.47;5056638;28;20025;-43
2022/01/19 08:40:11;;;;;;;63.05;25.92;;;;;;;3.87;95.12;102483.88;5056518;28;20455;-42
2022/01/19 08:42:37;;;;;;;66.63;25.98;;;;;;;4.02;95.38;102487.97;5055534;28;20503;-42
2022/01/19 08:45:07;;;;;;;64.18;26.10;;;;;;;3.96;94.58;102488.38;5056539;28;20023;-42
2022/01/19 08:47:39;;;;;;;59.08;25.48;;;;;;;3.95;94.23;102485.94;5038496;28;20036;-44
2022/01/19 08:50:07;;;;;;;65.38;25.50;;;;;;;3.91;94.59;102472.50;5056070;28;20025;-44
2022/01/19 08:52:33;;;;;;;67.28;25.17;;;;;;;3.94;94.98;102474.03;5056520;28;20021;-43
2022/01/19 08:54:59;;;;;;;64.47;25.27;;;;;;;3.96;94.93;102467.91;5055961;28;20028;-44
2022/01/19 08:57:25;;;;;;;61.95;25.92;;;;;;;3.87;94.65;102468.53;5055785;28;20425;-44
2022/01/19 08:59:50;;;;;;;60.78;25.50;;;;;;;3.90;95.77;102462.41;5056190;28;20017;-44
2022/01/19 09:02:16;;;;;;;63.88;26.83;;;;;;;3.89;95.41;102466.69;5055649;28;20021;-44
2022/01/19 09:04:41;;;;;;;67.68;26.60;;;;;;;3.95;94.86;102460.34;5055139;28;20041;-44
2022/01/19 09:07:06;;;;;;;61.38;25.08;;;;;;;3.98;95.69;102455.03;5055961;28;20467;-44
2022/01/19 09:09:32;;;;;;;64.95;26.10;;;;;;;4.10;95.66;102445.72;5055007;28;20025;-43
2022/01/19 09:11:58;;;;;;;63.30;25.40;;;;;;;3.98;95.09;102440.50;5055487;28;20422;-44
2022/01/19 09:14:24;;;;;;;60.10;26.35;;;;;;;4.13;94.30;102441.19;5055645;28;20032;-44
2022/01/19 09:16:49;;;;;;;61.70;25.08;;;;;;;4.13;94.04;102440.38;5054958;28;20032;-44
2022/01/19 09:19:16;;;;;;;62.10;25.33;;;;;;;4.10;94.03;102430.38;5055753;28;20024;-44
2022/01/19 09:21:42;;;;;;;59.25;26.63;;;;;;;3.99;95.50;102419.09;5037502;28;20021;-44
2022/01/19 09:24:10;;;;;;;63.85;26.40;;;;;;;4.06;95.09;102417.78;5055770;28;20031;-46
2022/01/19 09:26:36;;;;;;;62.75;27.02;;;;;;;4.17;94.96;102416.22;5054662;28;20021;-44
2022/01/19 09:29:02;;;;;;;60.85;26.35;;;;;;;4.20;94.99;102411.72;5055156;28;20029;-44
2022/01/19 09:31:27;;;;;;;62.15;25.17;;;;;;;4.21;94.70;102404.88;5055459;28;20032;-43
2022/01/19 09:34:07;;;;;;;68.47;26.08;;;;;;;4.20;94.13;102406.59;5055481;28;20116;-44
2022/01/19 09:36:35;;;;;;;64.10;25.63;;;;;;;4.33;93.77;102408.31;5054962;28;20017;-43
2022/01/19 09:39:01;;;;;;;60.47;26.08;;;;;;;4.23;94.47;102401.28;5055029;28;20055;-43
2022/01/19 09:41:28;;;;;;;61.00;25.67;;;;;;;4.19;94.10;102388.78;5054835;28;20028;-43
2022/01/19 09:43:54;;;;;;;59.67;24.90;;;;;;;4.19;94.14;102384.47;5055242;28;20036;-44
2022/01/19 09:46:20;;;;;;;64.40;25.48;;;;;;;4.27;93.80;102378.84;5036324;28;20021;-44
2022/01/19 09:48:45;;;;;;;63.05;26.55;;;;;;;4.14;94.16;102376.28;5054423;28;20519;-47
2022/01/19 09:51:12;;;;;;;70.13;25.45;;;;;;;4.15;94.99;102377.13;5036978;28;20028;-44
2022/01/19 09:53:38;;;;;;;56.60;24.63;;;;;;;4.22;94.41;102386.00;5055076;28;20021;-44
2022/01/19 09:56:03;;;;;;;62.10;25.92;;;;;;;4.17;94.62;102382.94;5055028;28;20032;-44
2022/01/19 09:58:29;;;;;;;60.85;24.52;;;;;;;4.03;94.90;102387.28;5055033;28;20047;-43
2022/01/19 10:00:54;;;;;;;63.75;25.85;;;;;;;4.05;94.74;102387.16;5054689;28;20463;-43
2022/01/19 10:03:23;;;;;;;56.78;24.35;;;;;;;4.04;94.45;102385.53;5037137;28;20463;-43
2022/01/19 10:06:09;;;;;;;63.50;26.13;;;;;;;4.21;94.83;102392.88;5054410;28;20118;-44
2022/01/19 10:08:55;;;;;;;56.22;23.63;;;;;;;4.19;94.57;102384.47;5036610;28;20020;-43
2022/01/19 10:17:16;;;;;;;61.38;26.65;;;;;;;4.26;94.05;102385.72;5055048;28;20087;-43
2022/01/19 10:19:49;;;;;;;58.78;24.77;;;;;;;4.34;93.67;102376.66;5010931;28;20364;-43
2022/01/19 10:22:18;;;;;;;58.17;25.83;;;;;;;4.23;94.71;102379.97;5054223;28;20436;-44
2022/01/19 10:25:00;;;;;;;64.32;26.35;;;;;;;4.21;94.21;102374.16;5020349;28;20048;-44
2022/01/19 10:27:28;;;;;;;57.40;24.35;;;;;;;4.25;94.55;102376.38;5035403;28;20033;-43
2022/01/19 10:29:56;;;;;;;63.72;25.55;;;;;;;4.10;95.38;102361.28;5035500;28;20029;-44
2022/01/19 10:32:25;;;;;;;56.40;25.58;;;;;;;4.06;95.50;102363.25;5036252;28;20020;-44
2022/01/19 10:34:52;;;;;;;59.80;26.45;;;;;;;4.21;94.75;102358.81;5054346;28;20029;-42
2022/01/19 10:37:27;;;;;;;60.92;25.20;;;;;;;4.16;95.24;102356.56;5053933;28;20111;-43
2022/01/19 10:39:57;;;;;;;65.20;24.80;;;;;;;4.05;95.25;102352.16;5053645;28;20068;-44
2022/01/19 10:42:25;;;;;;;60.25;25.65;;;;;;;4.10;95.37;102344.19;5053650;28;20380;-43
2022/01/19 10:44:55;;;;;;;65.30;26.45;;;;;;;4.09;95.83;102341.75;5036282;28;20024;-44
2022/01/19 10:47:44;;;;;;;57.45;25.45;;;;;;;4.16;95.66;102333.53;5053871;28;20394;-43
2022/01/19 10:50:13;;;;;;;58.47;24.90;;;;;;;4.33;94.36;102334.09;5035629;28;20029;-44
2022/01/19 10:52:41;;;;;;;56.85;25.42;;;;;;;4.26;94.82;102331.97;5053547;28;20021;-43
2022/01/19 10:55:20;;;;;;;59.58;24.77;;;;;;;4.17;94.11;102329.22;5053717;28;20025;-44
2022/01/19 10:57:47;;;;;;;53.13;24.35;;;;;;;4.24;94.70;102325.31;5035825;28;20033;-43
2022/01/19 11:00:16;;;;;;;51.15;23.65;;;;;;;4.20;94.34;102319.59;5035720;28;20021;-44
2022/01/19 11:02:43;;;;;;;60.08;25.00;;;;;;;4.28;94.73;102308.81;5053572;28;20024;-43
2022/01/19 11:05:09;;;;;;;53.60;23.67;;;;;;;4.23;94.25;102301.47;5053047;28;20053;-43
2022/01/19 11:07:34;;;;;;;55.78;25.13;;;;;;;4.26;95.07;102293.56;5035984;28;20083;-44
2022/01/19 11:10:08;;;;;;;58.47;25.15;;;;;;;4.28;94.18;102289.16;5053515;28;20024;-44
2022/01/19 11:12:40;;;;;;;53.05;24.67;;;;;;;4.30;94.32;102294.16;5053882;28;20021;-43
2022/01/19 11:15:07;;;;;;;62.08;25.02;;;;;;;4.31;94.86;102288.13;5053790;28;20509;-43
2022/01/19 11:17:33;;;;;;;58.50;23.83;;;;;;;4.33;94.28;102280.34;5053387;28;20086;-44
2022/01/19 11:20:05;;;;;;;50.92;23.50;;;;;;;4.33;93.88;102267.53;5035575;28;20359;-44
2022/01/19 11:22:57;;;;;;;51.40;24.58;;;;;;;4.39;93.93;102257.69;5053478;28;20084;-44
2022/01/19 11:25:36;;;;;;;54.47;25.55;;;;;;;4.53;93.61;102260.06;5053688;28;20021;-43
2022/01/19 11:28:02;;;;;;;50.80;23.80;;;;;;;4.61;93.48;102251.03;5053338;28;20043;-45
2022/01/19 11:30:31;;;;;;;58.00;24.10;;;;;;;4.59;93.50;102245.19;5053245;28;20033;-50
2022/01/19 11:33:17;;;;;;;56.95;24.55;;;;;;;4.74;92.73;102244.88;5035748;28;20021;-44
2022/01/19 11:35:45;;;;;;;50.88;24.67;;;;;;;4.91;92.33;102246.19;5052824;28;20071;-48
2022/01/19 11:38:41;;;;;;;52.33;24.15;;;;;;;5.08;91.60;102234.69;5035287;28;20021;-44
2022/01/19 11:41:09;;;;;;;50.95;23.98;;;;;;;4.98;91.90;102224.31;5037952;28;20033;-43
2022/01/19 11:43:38;;;;;;;56.78;25.73;;;;;;;5.03;92.12;102216.28;5057053;28;20360;-43
2022/01/19 11:46:05;;;;;;;55.10;24.67;;;;;;;4.97;92.46;102212.41;5056398;28;20471;-44
2022/01/19 11:48:37;;;;;;;60.47;25.35;;;;;;;4.89;92.42;102206.25;5057492;28;20041;-44
2022/01/19 11:51:35;;;;;;;53.70;25.65;;;;;;;4.84;92.48;102203.22;5057438;28;20029;-43
2022/01/19 11:54:10;;;;;;;55.83;25.33;;;;;;;4.94;92.92;102199.84;5057360;28;20021;-43
2022/01/19 11:57:02;;;;;;;53.80;23.65;;;;;;;4.89;92.75;102194.28;5057747;28;20446;-44
2022/01/19 11:59:45;;;;;;;50.72;24.80;;;;;;;4.89;93.55;102194.28;5056899;28;20056;-45
2022/01/19 12:02:33;;;;;;;54.22;26.15;;;;;;;4.88;93.24;102199.50;5056775;28;20162;-44
2022/01/19 12:04:58;;;;;;;56.53;26.52;;;;;;;5.06;92.55;102190.41;5056377;28;20052;-44
2022/01/19 12:07:41;;;;;;;52.67;25.88;;;;;;;5.19;91.94;102190.31;5056985;28;20025;-44
2022/01/19 12:10:21;;;;;;;62.25;26.92;;;;;;;5.26;91.42;102181.22;5038947;28;20463;-44
2022/01/19 12:13:25;;;;;;;55.92;25.85;;;;;;;5.29;91.36;102167.34;5057564;28;20017;-43
2022/01/19 12:15:57;;;;;;;60.00;25.85;;;;;;;5.39;91.67;102161.41;5056910;28;20530;-44
2022/01/19 12:18:41;;;;;;;52.42;24.75;;;;;;;5.19;91.78;102141.63;5056837;28;20094;-43
2022/01/19 12:21:10;;;;;;;51.92;25.48;;;;;;;5.31;91.43;102143.22;5039058;28;20450;-44
2022/01/19 12:23:37;;;;;;;54.28;24.70;;;;;;;5.32;91.32;102146.59;5038746;28;20036;-44
2022/01/19 12:26:06;;;;;;;56.72;26.05;;;;;;;5.25;91.21;102146.28;5055341;28;20498;-43
2022/01/19 12:28:47;;;;;;;50.72;25.83;;;;;;;5.34;90.94;102135.31;5055051;28;20372;-43
2022/01/19 12:31:24;;;;;;;54.47;26.27;;;;;;;5.35;91.44;102131.81;5056190;28;20647;-43
2022/01/19 12:34:07;;;;;;;55.55;26.42;;;;;;;5.34;91.44;102132.75;5038244;28;20029;-46
2022/01/19 12:36:43;;;;;;;56.65;26.38;;;;;;;5.40;91.24;102123.75;5056197;28;20382;-43
2022/01/19 12:39:27;;;;;;;51.88;24.77;;;;;;;5.37;91.36;102121.44;5056473;28;20035;-45
2022/01/19 12:41:59;;;;;;;53.45;24.40;;;;;;;5.36;91.88;102114.69;5056018;28;20494;-44